Main page
METAR-TAF:

METAR-TAF

Airports :

Pellston Regional Airport

Pellston, Michigan, United States

latitude: 45-34-15N, longitude: 084-47-48W, elevation: 722 ft

Current weather observation

The report was made 14 minutes ago, at 19:54 UTC
Wind 8 mph from the East with gusts up to 16 mph
Temperature 43°F
Humidity 24%
Pressure 30.30 in. Hg
Visibility: 10 miles
Clear sky

METAR: KPLN 241954Z AUTO 08007G14KT 10SM CLR 06/M13 A3030 RMK AO2 SLP269 T00561128

Time: 16:08 (20:08 UTC)

Forecast

The report was made 2 hours and 48 minutes ago, at 17:20 UTC
Forecast valid from 24 at 18 UTC to 25 at 18 UTC
Wind 8 mph from the North/Northeast with gusts up to 21 mph
Visibility: 6 miles
Clear sky
From 25 at 0100 UTC
Wind 2 mph from variable directions
Visibility: 6 miles
Clear sky
From 25 at 1400 UTC
Wind 5 mph from the South
Visibility: 6 miles
Clear sky

TAF: KPLN 241720Z 2418/2518 03007G18KT P6SM SKC FM250100 VRB02KT P6SM SKC FM251400 17004KT P6SM SKC

Weather observations and forecasts of more than 4000 airports (METAR and TAF reports).

The available stations are represented by yellow and red dots on the map.

Hover mouse over dot to see the name of the station.

Then click to see weather observations and forecasts.

To change the map : click on the green buttons with a black cross to zoom in, on the green button with a dash to zoom out, or on the green arrows for adjacent maps.


METAR-TAF: